PDT,Max TemperatureF,Mean TemperatureF,Min TemperatureF,Max Dew PointF,MeanDew PointF,Min DewpointF,Max Humidity, Mean Humidity, Min Humidity, Max Sea Level PressureIn, Mean Sea Level PressureIn, Min Sea Level PressureIn, Max VisibilityMiles, Mean VisibilityMiles, Min VisibilityMiles, Max Wind SpeedMPH, Mean Wind SpeedMPH, Max Gust SpeedMPH,PrecipitationIn, CloudCover, Events, WindDirDegrees
2012-8-1,100,89,77,74,62,51,85,58,31,29.98,29.91,29.83,10,10,10,8,3,12,0.00,2,,43
2012-8-2,107,94,80,61,57,54,43,33,22,29.88,29.80,29.70,10,10,10,12,4,16,0.00,1,,339
2012-8-3,106,95,83,58,56,53,40,29,18,29.77,29.72,29.64,10,10,10,18,4,26,0.00,1,,319
2012-8-4,109,95,81,60,57,51,47,32,16,29.79,29.73,29.70,10,10,10,16,4,25,0.00,0,,317
2012-8-5,106,94,81,64,56,48,55,35,15,29.91,29.84,29.79,10,10,10,13,6,17,0.00,0,,92
2012-8-6,111,99,87,59,55,50,34,25,16,29.93,29.86,29.78,10,10,10,13,6,20,0.00,1,,38
2012-8-7,113,101,89,66,54,47,35,25,15,29.87,29.79,29.70,10,10,10,14,6,18,0.00,1,,329
2012-8-8,115,102,88,60,55,48,40,27,14,29.82,29.76,29.69,10,10,10,15,5,20,0.00,0,,99
2012-8-9,109,99,89,71,63,54,56,39,21,29.85,29.76,29.69,10,10,7,20,6,23,0.00,1,,94
2012-8-10,116,103,90,73,60,49,49,31,12,29.79,29.69,29.58,10,10,10,18,6,23,0.00,1,,356
2012-8-11,114,102,90,69,58,52,46,31,15,29.78,29.68,29.63,10,10,10,15,6,21,0.00,2,,343
2012-8-12,116,103,89,59,55,46,37,24,11,29.73,29.68,29.62,10,10,10,25,7,32,0.00,1,,298
2012-8-13,116,105,94,59,54,46,28,21,13,29.73,29.69,29.63,10,10,10,29,8,43,0.00,1,,314
2012-8-14,111,99,86,63,55,43,43,30,16,29.73,29.67,29.60,10,10,10,16,4,21,0.00,0,,261
2012-8-15,106,96,86,77,65,55,72,51,30,29.81,29.73,29.66,10,9,5,16,6,20,0.00,2,,56
2012-8-16,100,93,86,77,72,57,72,52,32,29.89,29.83,29.75,10,10,10,17,6,24,0.00,2,,94
2012-8-17,98,91,83,77,72,67,80,60,40,29.93,29.87,29.79,10,10,10,15,7,18,0.00,3,,100
2012-8-18,101,93,84,75,70,61,70,53,36,29.90,29.82,29.71,10,10,10,14,6,17,0.00,3,,91
2012-8-19,106,96,85,67,64,59,48,39,30,29.82,29.75,29.66,10,10,10,15,5,21,0.00,0,,81
2012-8-20,107,96,85,66,61,57,48,38,27,29.82,29.75,29.67,10,10,10,12,5,17,0.00,0,,97
2012-8-21,105,94,83,68,63,61,48,38,28,29.82,29.75,29.67,10,10,10,15,5,21,0.00,1,,358
2012-8-22,99,89,79,75,66,63,59,47,35,29.86,29.79,29.72,10,10,6,21,5,24,0.10,4,Rain-Thunderstorm,322
2012-8-23,101,91,80,68,65,64,58,46,33,29.85,29.79,29.72,10,10,10,14,6,20,0.00,1,,7
2012-8-24,106,93,80,66,61,50,58,38,17,29.82,29.74,29.66,10,10,10,15,2,21,0.00,1,,322
2012-8-25,106,94,82,61,58,53,47,34,21,29.76,29.70,29.64,10,10,10,20,3,23,0.00,1,,330
2012-8-26,106,91,76,56,46,29,47,27,7,29.81,29.75,29.70,10,10,10,17,2,23,0.00,0,,318
2012-8-27,111,93,75,57,46,35,48,29,9,29.86,29.81,29.73,10,10,10,18,2,23,0.00,0,,299
2012-8-28,108,96,83,56,49,42,34,23,11,29.83,29.78,29.72,10,10,10,16,5,21,T,1,,312
2012-8-29,106,94,82,70,59,50,52,36,19,29.84,29.76,29.68,10,10,10,10,3,14,0.00,1,Rain,345
2012-8-30,96,85,73,76,68,55,74,53,32,29.86,29.78,29.73,10,9,1,36,5,46,0.60,4,Rain,278
2012-8-31,100,89,77,71,64,40,79,57,35,29.85,29.79,29.73,10,10,10,10,5,15,0.00,1,,185